createdAt,value
2023-04-20T00:02:39.862Z,85.69
2023-04-20T00:07:41.962Z,85.92
2023-04-20T00:12:43.733Z,86.32
2023-04-20T00:17:46.586Z,86.24
2023-04-20T00:22:48.462Z,86.12
2023-04-20T00:27:50.362Z,86.05
2023-04-20T00:32:52.157Z,85.94
2023-04-20T00:37:53.947Z,85.84
2023-04-20T00:42:55.779Z,85.71
2023-04-20T00:47:58.586Z,85.46
2023-04-20T00:53:03.290Z,85.66
2023-04-20T00:58:06.402Z,85.32
2023-04-20T01:03:08.909Z,85.11
2023-04-20T01:08:11.246Z,85.12
2023-04-20T01:13:12.954Z,85.18
2023-04-20T01:18:15.409Z,85.56
2023-04-20T01:23:17.123Z,85.57
2023-04-20T01:28:19.502Z,85.66
2023-04-20T01:33:21.218Z,85.90
2023-04-20T01:38:27.052Z,85.79
2023-04-20T01:43:28.932Z,85.99
2023-04-20T01:48:31.001Z,86.17
2023-04-20T01:53:32.668Z,86.26
2023-04-20T01:58:34.517Z,86.34
2023-04-20T02:03:36.411Z,86.33
2023-04-20T02:08:38.668Z,86.49
2023-04-20T02:13:42.664Z,86.42
2023-04-20T02:18:46.020Z,86.56
2023-04-20T02:23:48.114Z,86.58
2023-04-20T02:28:49.879Z,86.89
2023-04-20T02:33:51.651Z,86.67
2023-04-20T02:38:54.142Z,86.49
2023-04-20T02:43:55.885Z,86.31
2023-04-20T02:48:57.796Z,86.17
2023-04-20T02:53:59.982Z,86.00
2023-04-20T02:59:03.803Z,85.97
2023-04-20T03:04:18.200Z,86.21
2023-04-20T03:09:37.500Z,86.19
2023-04-20T03:14:51.832Z,86.09
2023-04-20T03:19:56.688Z,85.95
2023-04-20T03:24:59.246Z,85.76
2023-04-20T03:30:24.091Z,85.30
2023-04-20T03:35:31.659Z,85.44
2023-04-20T03:40:33.527Z,85.25
2023-04-20T03:45:35.269Z,85.12
2023-04-20T03:50:37.041Z,85.08
2023-04-20T03:55:39.875Z,85.42
2023-04-20T04:00:43.826Z,85.71
2023-04-20T04:07:11.211Z,85.62
2023-04-20T04:12:13.977Z,85.89
2023-04-20T04:17:15.884Z,85.96
2023-04-20T04:22:17.924Z,86.00
2023-04-20T04:27:35.042Z,85.38
2023-04-20T04:32:37.614Z,85.24
2023-04-20T04:37:40.423Z,85.19
2023-04-20T04:42:42.436Z,85.96
2023-04-20T04:47:44.766Z,85.76
2023-04-20T04:52:46.499Z,83.64
2023-04-20T04:57:48.271Z,82.46
2023-04-20T05:02:50.054Z,82.30
2023-04-20T05:07:51.904Z,80.79
2023-04-20T05:12:53.750Z,74.86
2023-04-20T05:17:55.578Z,72.15
2023-04-20T05:22:57.466Z,73.05
2023-04-20T05:27:59.577Z,72.10
2023-04-20T05:33:01.457Z,72.25
2023-04-20T05:38:06.360Z,73.43
2023-04-20T05:43:08.699Z,75.14
2023-04-20T05:48:10.911Z,73.71
2023-04-20T05:53:12.671Z,75.83
2023-04-20T05:58:15.440Z,75.43
2023-04-20T06:03:17.624Z,75.04
2023-04-20T06:08:19.516Z,75.26
2023-04-20T06:13:21.615Z,73.67
2023-04-20T06:18:23.371Z,70.87
2023-04-20T06:23:25.214Z,70.33
2023-04-20T06:28:27.007Z,68.25
2023-04-20T06:33:28.830Z,69.72
2023-04-20T06:38:30.793Z,69.36
2023-04-20T06:43:32.516Z,68.60
2023-04-20T06:48:35.164Z,67.80
2023-04-20T06:53:37.025Z,68.06
2023-04-20T06:58:38.686Z,68.52
2023-04-20T07:03:40.535Z,68.15
2023-04-20T07:08:42.712Z,67.25
2023-04-20T07:13:44.362Z,67.60
2023-04-20T07:18:47.465Z,67.33
2023-04-20T07:23:50.378Z,67.02
2023-04-20T07:29:00.348Z,66.17
2023-04-20T07:34:02.152Z,64.55
2023-04-20T07:39:05.301Z,65.93
2023-04-20T07:44:07.073Z,67.62
2023-04-20T07:49:08.810Z,65.46
2023-04-20T07:54:10.481Z,65.28
2023-04-20T07:59:12.309Z,64.50
2023-04-20T08:04:14.366Z,65.17
2023-04-20T08:09:16.411Z,63.05
2023-04-20T08:14:18.590Z,62.84
2023-04-20T08:19:20.667Z,62.23
2023-04-20T08:24:22.650Z,63.86
2023-04-20T08:29:24.668Z,61.55
2023-04-20T08:34:26.399Z,61.30
2023-04-20T08:39:28.155Z,57.83
2023-04-20T08:44:29.962Z,59.39
2023-04-20T08:49:33.043Z,61.43
2023-04-20T08:54:35.325Z,62.69
2023-04-20T08:59:39.168Z,62.06
2023-04-20T09:04:41.294Z,62.00
2023-04-20T09:09:57.121Z,60.23
2023-04-20T09:14:58.802Z,57.69
2023-04-20T09:20:01.065Z,55.35
2023-04-20T09:25:32.366Z,53.48
2023-04-20T09:30:42.036Z,54.69
2023-04-20T09:35:45.697Z,54.84
2023-04-20T09:40:47.889Z,53.53
2023-04-20T09:45:50.565Z,54.98
2023-04-20T09:50:52.876Z,54.14
2023-04-20T09:55:54.726Z,54.04
2023-04-20T10:00:56.546Z,53.42
2023-04-20T10:05:58.362Z,50.59
2023-04-20T10:11:00.082Z,52.43
2023-04-20T10:16:01.881Z,53.40
2023-04-20T10:21:09.773Z,53.05
2023-04-20T10:26:12.014Z,50.70
2023-04-20T10:31:15.473Z,51.57
2023-04-20T10:36:27.920Z,52.36
2023-04-20T10:41:29.625Z,53.44
2023-04-20T10:46:31.622Z,54.01
2023-04-20T10:51:33.447Z,55.42
2023-04-20T10:56:49.837Z,55.58
2023-04-20T11:02:01.596Z,54.86
2023-04-20T11:07:09.013Z,54.21
2023-04-20T11:12:16.116Z,54.94
2023-04-20T11:17:18.055Z,55.94
2023-04-20T11:22:23.501Z,56.82
2023-04-20T11:27:25.225Z,56.76
2023-04-20T11:32:27.158Z,56.09
2023-04-20T11:37:29.684Z,56.06
2023-04-20T11:42:31.394Z,56.38
2023-04-20T11:47:33.243Z,57.23
2023-04-20T11:52:35.008Z,58.55
2023-04-20T11:57:36.763Z,59.04
2023-04-20T12:02:38.701Z,59.23
2023-04-20T12:07:40.677Z,59.33
2023-04-20T12:12:42.446Z,57.88
2023-04-20T12:17:44.500Z,56.26
2023-04-20T12:22:46.265Z,54.25
2023-04-20T12:27:49.826Z,51.33
2023-04-20T12:32:51.907Z,51.09
2023-04-20T12:37:53.623Z,50.81
2023-04-20T12:42:55.331Z,51.24
2023-04-20T12:48:00.313Z,51.34
2023-04-20T12:53:02.405Z,49.62
2023-04-20T12:58:04.141Z,52.26
2023-04-20T13:03:05.942Z,55.29
2023-04-20T13:08:07.886Z,56.71
2023-04-20T13:13:11.383Z,57.69
2023-04-20T13:18:15.265Z,58.81
2023-04-20T13:23:17.075Z,58.59
2023-04-20T13:28:19.872Z,55.55
2023-04-20T13:33:21.625Z,55.90
2023-04-20T13:38:23.326Z,53.22
2023-04-20T13:43:25.843Z,53.75
2023-04-20T13:48:27.527Z,55.48
2023-04-20T13:53:29.331Z,55.04
2023-04-20T13:58:31.108Z,54.51
2023-04-20T14:03:32.995Z,53.00
2023-04-20T14:08:34.811Z,51.03
2023-04-20T14:13:37.645Z,51.03
2023-04-20T14:18:39.445Z,50.01
2023-04-20T14:23:41.229Z,48.94
2023-04-20T14:28:42.990Z,47.35
2023-04-20T14:33:44.947Z,47.10
2023-04-20T14:38:46.659Z,48.39
2023-04-20T14:43:48.761Z,50.02
2023-04-20T14:48:50.552Z,50.81
2023-04-20T14:53:52.318Z,50.64
2023-04-20T14:58:54.041Z,50.07
2023-04-20T15:03:56.079Z,49.04
2023-04-20T15:08:58.729Z,47.33
2023-04-20T15:14:00.649Z,47.76
2023-04-20T15:19:02.360Z,47.99
2023-04-20T15:24:04.458Z,47.35
2023-04-20T15:29:06.477Z,48.77
2023-04-20T15:34:08.184Z,48.78
2023-04-20T15:39:09.917Z,47.82
2023-04-20T15:44:12.961Z,46.73
2023-04-20T15:49:15.217Z,45.54
2023-04-20T15:54:17.155Z,44.81
2023-04-20T15:59:19.342Z,45.54
2023-04-20T16:04:21.398Z,46.56
2023-04-20T16:09:23.962Z,48.03
2023-04-20T16:14:25.856Z,47.31
2023-04-20T16:19:27.842Z,46.54
2023-04-20T16:24:29.514Z,46.68
2023-04-20T16:29:31.401Z,46.18
2023-04-20T16:34:33.236Z,46.09
2023-04-20T16:39:35.335Z,45.63
2023-04-20T16:44:37.297Z,45.99
2023-04-20T16:49:39.538Z,45.59
2023-04-20T16:54:41.820Z,46.15
2023-04-20T16:59:45.287Z,46.74
2023-04-20T17:04:47.511Z,47.32
2023-04-20T17:09:49.149Z,48.35
2023-04-20T17:14:51.201Z,50.13
2023-04-20T17:19:52.899Z,52.88
2023-04-20T17:24:54.644Z,54.83
2023-04-20T17:29:56.431Z,56.55
2023-04-20T17:34:58.764Z,58.60
2023-04-20T17:40:01.599Z,60.39
2023-04-20T17:45:03.768Z,61.40
2023-04-20T17:50:06.630Z,62.63
2023-04-20T17:55:20.725Z,62.66
2023-04-20T18:00:23.594Z,63.07
2023-04-20T18:05:25.337Z,63.26
2023-04-20T18:10:27.263Z,63.62
2023-04-20T18:15:29.000Z,64.06
2023-04-20T18:20:32.365Z,64.23
2023-04-20T18:25:34.348Z,64.44
2023-04-20T18:30:36.277Z,64.73
2023-04-20T18:35:38.039Z,65.48
2023-04-20T18:40:39.715Z,65.84
2023-04-20T18:45:41.528Z,66.20
2023-04-20T18:50:43.795Z,66.05
2023-04-20T18:55:46.604Z,67.41
2023-04-20T19:00:49.189Z,67.86
2023-04-20T19:05:50.999Z,68.61
2023-04-20T19:10:56.560Z,68.88
2023-04-20T19:15:58.251Z,69.11
2023-04-20T19:21:00.013Z,69.48
2023-04-20T19:26:02.160Z,69.80
2023-04-20T19:31:04.142Z,70.27
2023-04-20T19:36:08.747Z,70.54
2023-04-20T19:41:10.656Z,70.92
2023-04-20T19:46:15.227Z,70.15
2023-04-20T19:51:19.314Z,72.02
2023-04-20T19:56:21.305Z,72.27
2023-04-20T20:01:23.078Z,73.34
2023-04-20T20:06:24.972Z,73.36
2023-04-20T20:11:27.582Z,73.01
2023-04-20T20:16:29.494Z,72.41
2023-04-20T20:21:31.678Z,73.19
2023-04-20T20:26:33.404Z,76.35
2023-04-20T20:31:35.361Z,77.30
2023-04-20T20:36:37.216Z,77.49
2023-04-20T20:41:42.867Z,77.47
2023-04-20T20:46:44.701Z,77.31
2023-04-20T20:51:46.640Z,77.28
2023-04-20T20:56:48.504Z,75.80
2023-04-20T21:01:50.644Z,73.40
2023-04-20T21:06:52.552Z,72.94
2023-04-20T21:11:57.672Z,72.95
2023-04-20T21:17:02.091Z,73.39
2023-04-20T21:22:05.424Z,74.48
2023-04-20T21:27:07.379Z,75.31
2023-04-20T21:32:10.720Z,76.08
2023-04-20T21:37:12.869Z,77.76
2023-04-20T21:42:16.061Z,78.00
2023-04-20T21:47:18.414Z,76.25
2023-04-20T21:52:24.026Z,76.46
2023-04-20T21:57:25.847Z,78.70
2023-04-20T22:02:27.668Z,78.65
2023-04-20T22:07:30.404Z,79.49
2023-04-20T22:12:39.167Z,77.48
2023-04-20T22:17:45.443Z,77.09
2023-04-20T22:22:47.255Z,75.84
2023-04-20T22:27:48.939Z,76.37
2023-04-20T22:32:50.886Z,76.20
2023-04-20T22:37:52.694Z,77.17
2023-04-20T22:42:54.357Z,79.43
2023-04-20T22:47:56.142Z,79.39
2023-04-20T22:52:57.889Z,77.72
2023-04-20T22:57:59.611Z,78.81
2023-04-20T23:03:01.486Z,80.50
2023-04-20T23:08:04.649Z,79.51
2023-04-20T23:13:16.837Z,80.45
2023-04-20T23:18:18.543Z,81.49
2023-04-20T23:23:20.295Z,80.56
2023-04-20T23:28:22.187Z,78.87
2023-04-20T23:33:25.675Z,80.71
2023-04-20T23:38:27.476Z,81.67
2023-04-20T23:43:29.710Z,83.42
2023-04-20T23:48:34.320Z,83.06
2023-04-20T23:53:39.175Z,82.82
2023-04-20T23:58:41.078Z,80.51
